sensor_id;sensor_type;location;lat;lon;timestamp;P1;durP1;ratioP1;P2;durP2;ratioP2
54193;SDS011;40102;50.906;6.972;2022-09-01T00:01:13;1.27;;;1.17;;
54193;SDS011;40102;50.906;6.972;2022-09-01T00:03:48;1.50;;;1.30;;
54193;SDS011;40102;50.906;6.972;2022-09-01T00:06:16;1.40;;;1.30;;
54193;SDS011;40102;50.906;6.972;2022-09-01T00:08:51;1.38;;;1.23;;
54193;SDS011;40102;50.906;6.972;2022-09-01T00:11:18;1.73;;;1.30;;
54193;SDS011;40102;50.906;6.972;2022-09-01T00:13:44;1.90;;;1.30;;
54193;SDS011;40102;50.906;6.972;2022-09-01T00:16:10;1.77;;;1.40;;
54193;SDS011;40102;50.906;6.972;2022-09-01T00:18:40;2.08;;;1.42;;
54193;SDS011;40102;50.906;6.972;2022-09-01T00:21:09;1.70;;;1.30;;
54193;SDS011;40102;50.906;6.972;2022-09-01T00:23:35;2.88;;;1.40;;
54193;SDS011;40102;50.906;6.972;2022-09-01T00:26:01;2.55;;;1.40;;
54193;SDS011;40102;50.906;6.972;2022-09-01T00:28:27;1.40;;;1.27;;
54193;SDS011;40102;50.906;6.972;2022-09-01T00:30:52;2.28;;;1.52;;
54193;SDS011;40102;50.906;6.972;2022-09-01T00:33:18;1.42;;;1.33;;
54193;SDS011;40102;50.906;6.972;2022-09-01T00:35:44;1.60;;;1.40;;
54193;SDS011;40102;50.906;6.972;2022-09-01T00:38:09;2.85;;;1.60;;
54193;SDS011;40102;50.906;6.972;2022-09-01T00:40:35;1.67;;;1.58;;
54193;SDS011;40102;50.906;6.972;2022-09-01T00:43:09;1.95;;;1.30;;
54193;SDS011;40102;50.906;6.972;2022-09-01T00:45:36;2.03;;;1.52;;
54193;SDS011;40102;50.906;6.972;2022-09-01T00:48:01;1.63;;;1.30;;
54193;SDS011;40102;50.906;6.972;2022-09-01T00:50:29;2.13;;;1.60;;
54193;SDS011;40102;50.906;6.972;2022-09-01T00:52:55;1.52;;;1.40;;
54193;SDS011;40102;50.906;6.972;2022-09-01T00:55:25;2.30;;;1.50;;
54193;SDS011;40102;50.906;6.972;2022-09-01T00:57:55;1.50;;;1.40;;
54193;SDS011;40102;50.906;6.972;2022-09-01T01:00:24;1.88;;;1.65;;
54193;SDS011;40102;50.906;6.972;2022-09-01T01:02:54;2.22;;;1.80;;
54193;SDS011;40102;50.906;6.972;2022-09-01T01:05:25;2.22;;;1.90;;
54193;SDS011;40102;50.906;6.972;2022-09-01T01:07:57;1.80;;;1.70;;
54193;SDS011;40102;50.906;6.972;2022-09-01T01:10:25;2.83;;;1.80;;
54193;SDS011;40102;50.906;6.972;2022-09-01T01:12:57;1.90;;;1.70;;
54193;SDS011;40102;50.906;6.972;2022-09-01T01:15:26;1.73;;;1.63;;
54193;SDS011;40102;50.906;6.972;2022-09-01T01:17:52;1.70;;;1.60;;
54193;SDS011;40102;50.906;6.972;2022-09-01T01:20:18;1.65;;;1.48;;
54193;SDS011;40102;50.906;6.972;2022-09-01T01:23:12;1.50;;;1.40;;
54193;SDS011;40102;50.906;6.972;2022-09-01T01:25:47;1.92;;;1.50;;
54193;SDS011;40102;50.906;6.972;2022-09-01T01:28:23;1.50;;;1.40;;
54193;SDS011;40102;50.906;6.972;2022-09-01T01:30:54;1.67;;;1.50;;
54193;SDS011;40102;50.906;6.972;2022-09-01T01:33:52;1.48;;;1.30;;
54193;SDS011;40102;50.906;6.972;2022-09-01T01:36:21;1.65;;;1.40;;
54193;SDS011;40102;50.906;6.972;2022-09-01T01:38:56;1.30;;;1.20;;
54193;SDS011;40102;50.906;6.972;2022-09-01T01:41:26;1.67;;;1.58;;
54193;SDS011;40102;50.906;6.972;2022-09-01T01:43:54;1.48;;;1.33;;
54193;SDS011;40102;50.906;6.972;2022-09-01T01:46:23;1.60;;;1.50;;
54193;SDS011;40102;50.906;6.972;2022-09-01T01:48:50;2.97;;;1.58;;
54193;SDS011;40102;50.906;6.972;2022-09-01T01:51:16;2.30;;;1.67;;
54193;SDS011;40102;50.906;6.972;2022-09-01T01:53:45;1.80;;;1.50;;
54193;SDS011;40102;50.906;6.972;2022-09-01T01:56:11;2.67;;;1.33;;
54193;SDS011;40102;50.906;6.972;2022-09-01T01:58:36;2.17;;;1.60;;
54193;SDS011;40102;50.906;6.972;2022-09-01T02:01:04;2.55;;;1.35;;
54193;SDS011;40102;50.906;6.972;2022-09-01T02:03:33;1.75;;;1.40;;
54193;SDS011;40102;50.906;6.972;2022-09-01T02:06:03;1.52;;;1.40;;
54193;SDS011;40102;50.906;6.972;2022-09-01T02:08:33;2.20;;;1.40;;
54193;SDS011;40102;50.906;6.972;2022-09-01T02:11:01;1.48;;;1.30;;
54193;SDS011;40102;50.906;6.972;2022-09-01T02:13:28;1.48;;;1.10;;
54193;SDS011;40102;50.906;6.972;2022-09-01T02:15:58;1.30;;;1.20;;
54193;SDS011;40102;50.906;6.972;2022-09-01T02:18:26;1.65;;;1.40;;
54193;SDS011;40102;50.906;6.972;2022-09-01T02:20:58;1.92;;;1.65;;
54193;SDS011;40102;50.906;6.972;2022-09-01T02:23:25;3.25;;;2.20;;
54193;SDS011;40102;50.906;6.972;2022-09-01T02:25:52;4.75;;;2.92;;
54193;SDS011;40102;50.906;6.972;2022-09-01T02:28:21;5.03;;;2.67;;
54193;SDS011;40102;50.906;6.972;2022-09-01T02:30:49;4.03;;;2.60;;
54193;SDS011;40102;50.906;6.972;2022-09-01T02:33:16;3.60;;;2.20;;
54193;SDS011;40102;50.906;6.972;2022-09-01T02:35:50;2.63;;;2.00;;
54193;SDS011;40102;50.906;6.972;2022-09-01T02:38:18;1.90;;;1.50;;
54193;SDS011;40102;50.906;6.972;2022-09-01T02:40:45;1.90;;;1.55;;
54193;SDS011;40102;50.906;6.972;2022-09-01T02:43:11;3.28;;;1.70;;
54193;SDS011;40102;50.906;6.972;2022-09-01T02:45:39;3.13;;;1.90;;
54193;SDS011;40102;50.906;6.972;2022-09-01T02:50:38;4.50;;;2.28;;
54193;SDS011;40102;50.906;6.972;2022-09-01T02:53:06;2.70;;;2.03;;
54193;SDS011;40102;50.906;6.972;2022-09-01T02:55:37;2.72;;;2.08;;
54193;SDS011;40102;50.906;6.972;2022-09-01T02:58:04;3.25;;;2.15;;
54193;SDS011;40102;50.906;6.972;2022-09-01T03:00:32;2.83;;;1.80;;
54193;SDS011;40102;50.906;6.972;2022-09-01T03:03:01;5.43;;;2.05;;
54193;SDS011;40102;50.906;6.972;2022-09-01T03:05:28;2.35;;;1.88;;
54193;SDS011;40102;50.906;6.972;2022-09-01T03:07:59;2.72;;;1.95;;
54193;SDS011;40102;50.906;6.972;2022-09-01T03:10:28;2.70;;;1.90;;
54193;SDS011;40102;50.906;6.972;2022-09-01T03:13:06;2.45;;;1.70;;
54193;SDS011;40102;50.906;6.972;2022-09-01T03:15:34;2.65;;;1.80;;
54193;SDS011;40102;50.906;6.972;2022-09-01T03:18:01;2.15;;;1.55;;
54193;SDS011;40102;50.906;6.972;2022-09-01T03:20:29;2.58;;;1.70;;
54193;SDS011;40102;50.906;6.972;2022-09-01T03:22:58;2.80;;;1.70;;
54193;SDS011;40102;50.906;6.972;2022-09-01T03:25:24;3.35;;;2.05;;
54193;SDS011;40102;50.906;6.972;2022-09-01T03:27:51;2.13;;;1.70;;
54193;SDS011;40102;50.906;6.972;2022-09-01T03:30:17;2.58;;;1.60;;
54193;SDS011;40102;50.906;6.972;2022-09-01T03:32:43;2.40;;;1.60;;
54193;SDS011;40102;50.906;6.972;2022-09-01T03:35:09;1.90;;;1.38;;
54193;SDS011;40102;50.906;6.972;2022-09-01T03:37:35;2.53;;;1.55;;
54193;SDS011;40102;50.906;6.972;2022-09-01T03:40:03;1.67;;;1.52;;
54193;SDS011;40102;50.906;6.972;2022-09-01T03:42:33;1.92;;;1.48;;
54193;SDS011;40102;50.906;6.972;2022-09-01T03:44:59;1.88;;;1.38;;
54193;SDS011;40102;50.906;6.972;2022-09-01T03:47:36;1.60;;;1.45;;
54193;SDS011;40102;50.906;6.972;2022-09-01T03:50:06;1.52;;;1.40;;
54193;SDS011;40102;50.906;6.972;2022-09-01T03:55:13;2.33;;;1.50;;
54193;SDS011;40102;50.906;6.972;2022-09-01T03:57:42;1.33;;;1.20;;
54193;SDS011;40102;50.906;6.972;2022-09-01T04:00:08;1.90;;;1.50;;
54193;SDS011;40102;50.906;6.972;2022-09-01T04:02:44;1.75;;;1.25;;
54193;SDS011;40102;50.906;6.972;2022-09-01T04:05:11;2.53;;;1.48;;
54193;SDS011;40102;50.906;6.972;2022-09-01T04:07:36;1.52;;;1.20;;
54193;SDS011;40102;50.906;6.972;2022-09-01T04:10:02;1.42;;;1.20;;
54193;SDS011;40102;50.906;6.972;2022-09-01T04:12:28;2.08;;;1.33;;
54193;SDS011;40102;50.906;6.972;2022-09-01T04:14:54;1.65;;;1.23;;
54193;SDS011;40102;50.906;6.972;2022-09-01T04:17:20;1.65;;;1.20;;
54193;SDS011;40102;50.906;6.972;2022-09-01T04:20:08;1.42;;;1.27;;
54193;SDS011;40102;50.906;6.972;2022-09-01T04:22:34;2.45;;;1.48;;
54193;SDS011;40102;50.906;6.972;2022-09-01T04:25:02;2.30;;;1.20;;
54193;SDS011;40102;50.906;6.972;2022-09-01T04:27:28;1.70;;;1.30;;
54193;SDS011;40102;50.906;6.972;2022-09-01T04:29:54;1.98;;;1.17;;
54193;SDS011;40102;50.906;6.972;2022-09-01T04:32:21;1.48;;;1.10;;
54193;SDS011;40102;50.906;6.972;2022-09-01T04:34:47;1.70;;;1.27;;
54193;SDS011;40102;50.906;6.972;2022-09-01T04:37:14;2.45;;;1.45;;
54193;SDS011;40102;50.906;6.972;2022-09-01T04:39:49;1.75;;;1.30;;
54193;SDS011;40102;50.906;6.972;2022-09-01T04:42:16;2.05;;;1.38;;
54193;SDS011;40102;50.906;6.972;2022-09-01T04:44:43;1.88;;;1.10;;
54193;SDS011;40102;50.906;6.972;2022-09-01T04:47:10;2.47;;;1.20;;
54193;SDS011;40102;50.906;6.972;2022-09-01T04:49:40;1.88;;;1.48;;
54193;SDS011;40102;50.906;6.972;2022-09-01T04:52:06;1.95;;;1.20;;
54193;SDS011;40102;50.906;6.972;2022-09-01T04:54:31;6.30;;;1.30;;
54193;SDS011;40102;50.906;6.972;2022-09-01T04:56:58;2.10;;;1.30;;
54193;SDS011;40102;50.906;6.972;2022-09-01T04:59:24;1.60;;;1.20;;
54193;SDS011;40102;50.906;6.972;2022-09-01T05:01:51;2.33;;;1.02;;
54193;SDS011;40102;50.906;6.972;2022-09-01T05:04:23;1.98;;;1.48;;
54193;SDS011;40102;50.906;6.972;2022-09-01T05:06:52;3.17;;;1.15;;
54193;SDS011;40102;50.906;6.972;2022-09-01T05:09:21;1.83;;;1.20;;
54193;SDS011;40102;50.906;6.972;2022-09-01T05:11:49;3.50;;;1.45;;
54193;SDS011;40102;50.906;6.972;2022-09-01T05:14:15;1.98;;;1.30;;
54193;SDS011;40102;50.906;6.972;2022-09-01T05:16:43;2.03;;;1.42;;
54193;SDS011;40102;50.906;6.972;2022-09-01T05:19:10;2.22;;;1.52;;
54193;SDS011;40102;50.906;6.972;2022-09-01T05:21:39;1.80;;;1.15;;
54193;SDS011;40102;50.906;6.972;2022-09-01T05:24:05;1.65;;;1.10;;
54193;SDS011;40102;50.906;6.972;2022-09-01T05:26:33;3.50;;;1.30;;
54193;SDS011;40102;50.906;6.972;2022-09-01T05:29:00;1.30;;;1.20;;
54193;SDS011;40102;50.906;6.972;2022-09-01T05:31:28;1.75;;;1.10;;
54193;SDS011;40102;50.906;6.972;2022-09-01T05:33:58;2.72;;;1.10;;
54193;SDS011;40102;50.906;6.972;2022-09-01T05:36:25;2.20;;;1.30;;
54193;SDS011;40102;50.906;6.972;2022-09-01T05:38:57;2.85;;;1.30;;
54193;SDS011;40102;50.906;6.972;2022-09-01T05:41:23;2.72;;;1.30;;
54193;SDS011;40102;50.906;6.972;2022-09-01T05:43:49;3.33;;;1.38;;
54193;SDS011;40102;50.906;6.972;2022-09-01T05:46:20;2.00;;;1.45;;
54193;SDS011;40102;50.906;6.972;2022-09-01T05:48:49;3.10;;;1.30;;
54193;SDS011;40102;50.906;6.972;2022-09-01T05:51:17;1.60;;;1.30;;
54193;SDS011;40102;50.906;6.972;2022-09-01T05:53:45;3.30;;;1.45;;
54193;SDS011;40102;50.906;6.972;2022-09-01T05:56:15;1.80;;;1.50;;
54193;SDS011;40102;50.906;6.972;2022-09-01T05:58:43;1.52;;;1.10;;
54193;SDS011;40102;50.906;6.972;2022-09-01T06:01:17;1.52;;;1.17;;
54193;SDS011;40102;50.906;6.972;2022-09-01T06:03:49;1.30;;;1.20;;
54193;SDS011;40102;50.906;6.972;2022-09-01T06:06:18;1.67;;;1.15;;
54193;SDS011;40102;50.906;6.972;2022-09-01T06:08:56;1.90;;;1.20;;
54193;SDS011;40102;50.906;6.972;2022-09-01T06:11:24;1.92;;;1.23;;
54193;SDS011;40102;50.906;6.972;2022-09-01T06:13:51;1.55;;;1.17;;
54193;SDS011;40102;50.906;6.972;2022-09-01T06:16:21;2.05;;;1.30;;
54193;SDS011;40102;50.906;6.972;2022-09-01T06:18:48;2.22;;;1.05;;
54193;SDS011;40102;50.906;6.972;2022-09-01T06:21:16;1.45;;;1.10;;
54193;SDS011;40102;50.906;6.972;2022-09-01T06:23:43;3.80;;;1.10;;
54193;SDS011;40102;50.906;6.972;2022-09-01T06:26:18;1.48;;;1.17;;
54193;SDS011;40102;50.906;6.972;2022-09-01T06:28:44;2.75;;;1.40;;
54193;SDS011;40102;50.906;6.972;2022-09-01T06:31:11;2.65;;;1.17;;
54193;SDS011;40102;50.906;6.972;2022-09-01T06:33:37;2.13;;;1.38;;
54193;SDS011;40102;50.906;6.972;2022-09-01T06:36:03;2.17;;;1.20;;
54193;SDS011;40102;50.906;6.972;2022-09-01T06:38:29;1.95;;;1.20;;
54193;SDS011;40102;50.906;6.972;2022-09-01T06:40:59;1.65;;;1.30;;
54193;SDS011;40102;50.906;6.972;2022-09-01T06:43:29;2.25;;;1.25;;
54193;SDS011;40102;50.906;6.972;2022-09-01T06:45:55;1.70;;;1.48;;
54193;SDS011;40102;50.906;6.972;2022-09-01T06:48:20;2.22;;;1.50;;
54193;SDS011;40102;50.906;6.972;2022-09-01T06:50:47;2.05;;;1.40;;
54193;SDS011;40102;50.906;6.972;2022-09-01T06:53:13;1.60;;;1.30;;
54193;SDS011;40102;50.906;6.972;2022-09-01T06:55:42;4.10;;;1.77;;
54193;SDS011;40102;50.906;6.972;2022-09-01T06:58:12;1.58;;;1.33;;
54193;SDS011;40102;50.906;6.972;2022-09-01T07:00:40;1.70;;;1.38;;
54193;SDS011;40102;50.906;6.972;2022-09-01T07:03:10;1.95;;;1.10;;
54193;SDS011;40102;50.906;6.972;2022-09-01T07:05:38;3.60;;;1.10;;
54193;SDS011;40102;50.906;6.972;2022-09-01T07:08:09;3.13;;;1.33;;
54193;SDS011;40102;50.906;6.972;2022-09-01T07:10:42;2.05;;;1.33;;
54193;SDS011;40102;50.906;6.972;2022-09-01T07:13:11;3.63;;;1.20;;
54193;SDS011;40102;50.906;6.972;2022-09-01T07:15:42;2.08;;;1.20;;
54193;SDS011;40102;50.906;6.972;2022-09-01T07:18:09;2.72;;;1.13;;
54193;SDS011;40102;50.906;6.972;2022-09-01T07:20:39;2.40;;;1.10;;
54193;SDS011;40102;50.906;6.972;2022-09-01T07:23:05;1.57;;;1.07;;
54193;SDS011;40102;50.906;6.972;2022-09-01T07:25:32;2.45;;;1.38;;
54193;SDS011;40102;50.906;6.972;2022-09-01T07:28:06;1.77;;;1.20;;
54193;SDS011;40102;50.906;6.972;2022-09-01T07:30:32;1.25;;;1.00;;
54193;SDS011;40102;50.906;6.972;2022-09-01T07:32:59;1.60;;;1.10;;
54193;SDS011;40102;50.906;6.972;2022-09-01T07:35:24;3.05;;;1.13;;
54193;SDS011;40102;50.906;6.972;2022-09-01T07:37:50;3.95;;;1.20;;
54193;SDS011;40102;50.906;6.972;2022-09-01T07:40:16;1.98;;;1.10;;
54193;SDS011;40102;50.906;6.972;2022-09-01T07:42:45;2.15;;;1.10;;
54193;SDS011;40102;50.906;6.972;2022-09-01T07:45:12;2.55;;;1.27;;
54193;SDS011;40102;50.906;6.972;2022-09-01T07:47:40;3.28;;;1.20;;
54193;SDS011;40102;50.906;6.972;2022-09-01T07:50:09;2.65;;;1.42;;
54193;SDS011;40102;50.906;6.972;2022-09-01T07:52:39;2.45;;;1.40;;
54193;SDS011;40102;50.906;6.972;2022-09-01T07:55:14;1.30;;;1.20;;
54193;SDS011;40102;50.906;6.972;2022-09-01T07:57:41;1.85;;;1.13;;
54193;SDS011;40102;50.906;6.972;2022-09-01T08:00:10;1.20;;;1.08;;
54193;SDS011;40102;50.906;6.972;2022-09-01T08:02:38;3.17;;;1.30;;
54193;SDS011;40102;50.906;6.972;2022-09-01T08:05:12;1.52;;;1.30;;
54193;SDS011;40102;50.906;6.972;2022-09-01T08:07:41;1.20;;;1.00;;
54193;SDS011;40102;50.906;6.972;2022-09-01T08:10:11;2.13;;;1.42;;
54193;SDS011;40102;50.906;6.972;2022-09-01T08:12:36;2.30;;;1.30;;
54193;SDS011;40102;50.906;6.972;2022-09-01T08:15:03;2.83;;;1.40;;
54193;SDS011;40102;50.906;6.972;2022-09-01T08:17:30;2.15;;;1.27;;
54193;SDS011;40102;50.906;6.972;2022-09-01T08:19:56;2.00;;;1.10;;
54193;SDS011;40102;50.906;6.972;2022-09-01T08:22:21;2.13;;;1.23;;
54193;SDS011;40102;50.906;6.972;2022-09-01T08:24:49;2.58;;;1.23;;
54193;SDS011;40102;50.906;6.972;2022-09-01T08:27:15;3.83;;;1.52;;
54193;SDS011;40102;50.906;6.972;2022-09-01T08:29:41;1.70;;;1.13;;
54193;SDS011;40102;50.906;6.972;2022-09-01T08:32:07;1.65;;;1.35;;
54193;SDS011;40102;50.906;6.972;2022-09-01T08:34:33;1.92;;;1.20;;
54193;SDS011;40102;50.906;6.972;2022-09-01T08:36:59;2.63;;;1.20;;
54193;SDS011;40102;50.906;6.972;2022-09-01T08:39:24;1.90;;;1.30;;
54193;SDS011;40102;50.906;6.972;2022-09-01T08:44:28;2.83;;;1.27;;
54193;SDS011;40102;50.906;6.972;2022-09-01T08:47:19;2.13;;;1.20;;
54193;SDS011;40102;50.906;6.972;2022-09-01T08:49:45;1.00;;;0.90;;
54193;SDS011;40102;50.906;6.972;2022-09-01T08:54:43;2.58;;;1.60;;
54193;SDS011;40102;50.906;6.972;2022-09-01T08:57:19;3.28;;;1.00;;
54193;SDS011;40102;50.906;6.972;2022-09-01T08:59:47;2.22;;;1.10;;
54193;SDS011;40102;50.906;6.972;2022-09-01T09:07:36;3.45;;;1.13;;
54193;SDS011;40102;50.906;6.972;2022-09-01T09:10:36;1.88;;;1.30;;
54193;SDS011;40102;50.906;6.972;2022-09-01T09:13:10;1.40;;;0.90;;
54193;SDS011;40102;50.906;6.972;2022-09-01T09:16:09;1.25;;;0.93;;
54193;SDS011;40102;50.906;6.972;2022-09-01T09:21:39;1.85;;;1.00;;
54193;SDS011;40102;50.906;6.972;2022-09-01T09:27:15;5.65;;;1.20;;
54193;SDS011;40102;50.906;6.972;2022-09-01T09:29:52;2.55;;;0.90;;
54193;SDS011;40102;50.906;6.972;2022-09-01T09:32:20;2.22;;;1.00;;
54193;SDS011;40102;50.906;6.972;2022-09-01T09:34:48;1.83;;;1.02;;
54193;SDS011;40102;50.906;6.972;2022-09-01T09:39:44;1.73;;;0.90;;
54193;SDS011;40102;50.906;6.972;2022-09-01T09:42:26;1.20;;;1.10;;
54193;SDS011;40102;50.906;6.972;2022-09-01T09:44:52;2.35;;;1.30;;
54193;SDS011;40102;50.906;6.972;2022-09-01T09:47:39;1.70;;;1.20;;
54193;SDS011;40102;50.906;6.972;2022-09-01T09:50:11;1.00;;;0.80;;
54193;SDS011;40102;50.906;6.972;2022-09-01T09:52:41;2.47;;;1.10;;
54193;SDS011;40102;50.906;6.972;2022-09-01T09:55:22;1.80;;;0.80;;
54193;SDS011;40102;50.906;6.972;2022-09-01T09:57:49;1.30;;;1.10;;
54193;SDS011;40102;50.906;6.972;2022-09-01T10:00:20;2.38;;;1.00;;
54193;SDS011;40102;50.906;6.972;2022-09-01T10:02:51;1.92;;;1.20;;
54193;SDS011;40102;50.906;6.972;2022-09-01T10:05:36;1.10;;;0.88;;
54193;SDS011;40102;50.906;6.972;2022-09-01T10:08:07;1.10;;;0.88;;
54193;SDS011;40102;50.906;6.972;2022-09-01T10:13:14;1.10;;;1.00;;
54193;SDS011;40102;50.906;6.972;2022-09-01T10:16:04;1.45;;;1.00;;
54193;SDS011;40102;50.906;6.972;2022-09-01T10:18:32;1.30;;;1.00;;
54193;SDS011;40102;50.906;6.972;2022-09-01T10:21:03;1.30;;;1.08;;
54193;SDS011;40102;50.906;6.972;2022-09-01T10:23:32;1.73;;;0.90;;
54193;SDS011;40102;50.906;6.972;2022-09-01T10:26:02;1.95;;;1.35;;
54193;SDS011;40102;50.906;6.972;2022-09-01T10:28:37;4.13;;;1.00;;
54193;SDS011;40102;50.906;6.972;2022-09-01T10:31:10;1.60;;;1.20;;
54193;SDS011;40102;50.906;6.972;2022-09-01T10:33:35;2.78;;;1.02;;
54193;SDS011;40102;50.906;6.972;2022-09-01T10:36:01;4.35;;;1.13;;
54193;SDS011;40102;50.906;6.972;2022-09-01T10:38:27;2.55;;;1.10;;
54193;SDS011;40102;50.906;6.972;2022-09-01T10:40:55;1.17;;;1.00;;
54193;SDS011;40102;50.906;6.972;2022-09-01T10:45:57;4.82;;;1.10;;
54193;SDS011;40102;50.906;6.972;2022-09-01T10:48:25;3.88;;;1.13;;
54193;SDS011;40102;50.906;6.972;2022-09-01T10:53:37;3.78;;;1.30;;
54193;SDS011;40102;50.906;6.972;2022-09-01T11:04:21;1.75;;;1.20;;
54193;SDS011;40102;50.906;6.972;2022-09-01T11:22:59;1.95;;;1.30;;
54193;SDS011;40102;50.906;6.972;2022-09-01T11:28:08;1.40;;;1.13;;
54193;SDS011;40102;50.906;6.972;2022-09-01T11:36:12;3.38;;;1.50;;
54193;SDS011;40102;50.906;6.972;2022-09-01T11:38:57;1.58;;;1.30;;
54193;SDS011;40102;50.906;6.972;2022-09-01T11:41:51;3.28;;;1.40;;
54193;SDS011;40102;50.906;6.972;2022-09-01T11:44:23;2.65;;;1.40;;
54193;SDS011;40102;50.906;6.972;2022-09-01T11:46:49;1.73;;;1.30;;
54193;SDS011;40102;50.906;6.972;2022-09-01T11:49:25;1.80;;;1.33;;
54193;SDS011;40102;50.906;6.972;2022-09-01T11:51:53;2.15;;;1.50;;
54193;SDS011;40102;50.906;6.972;2022-09-01T11:54:19;3.08;;;1.50;;
54193;SDS011;40102;50.906;6.972;2022-09-01T11:56:46;2.53;;;1.50;;
54193;SDS011;40102;50.906;6.972;2022-09-01T11:59:11;2.13;;;1.58;;
54193;SDS011;40102;50.906;6.972;2022-09-01T12:01:38;2.65;;;1.40;;
54193;SDS011;40102;50.906;6.972;2022-09-01T12:06:51;4.43;;;1.60;;
54193;SDS011;40102;50.906;6.972;2022-09-01T12:09:19;1.77;;;1.50;;
54193;SDS011;40102;50.906;6.972;2022-09-01T12:11:44;3.78;;;1.70;;
54193;SDS011;40102;50.906;6.972;2022-09-01T12:14:10;4.10;;;1.42;;
54193;SDS011;40102;50.906;6.972;2022-09-01T12:16:43;3.47;;;1.50;;
54193;SDS011;40102;50.906;6.972;2022-09-01T12:19:20;3.17;;;1.70;;
54193;SDS011;40102;50.906;6.972;2022-09-01T12:21:55;1.95;;;1.60;;
54193;SDS011;40102;50.906;6.972;2022-09-01T12:24:30;3.33;;;1.70;;
54193;SDS011;40102;50.906;6.972;2022-09-01T12:26:59;2.00;;;1.80;;
54193;SDS011;40102;50.906;6.972;2022-09-01T12:29:25;1.90;;;1.70;;
54193;SDS011;40102;50.906;6.972;2022-09-01T12:31:52;2.60;;;1.50;;
54193;SDS011;40102;50.906;6.972;2022-09-01T12:37:08;2.42;;;1.90;;
54193;SDS011;40102;50.906;6.972;2022-09-01T12:39:41;3.25;;;1.88;;
54193;SDS011;40102;50.906;6.972;2022-09-01T12:44:48;1.95;;;1.60;;
54193;SDS011;40102;50.906;6.972;2022-09-01T12:49:57;3.35;;;1.63;;
54193;SDS011;40102;50.906;6.972;2022-09-01T12:52:24;2.30;;;1.60;;
54193;SDS011;40102;50.906;6.972;2022-09-01T12:57:31;2.17;;;1.80;;
54193;SDS011;40102;50.906;6.972;2022-09-01T13:02:36;2.05;;;1.55;;
54193;SDS011;40102;50.906;6.972;2022-09-01T13:05:17;2.35;;;1.70;;
54193;SDS011;40102;50.906;6.972;2022-09-01T13:08:06;2.13;;;1.63;;
54193;SDS011;40102;50.906;6.972;2022-09-01T13:10:42;1.83;;;1.63;;
54193;SDS011;40102;50.906;6.972;2022-09-01T13:13:10;3.00;;;1.90;;
54193;SDS011;40102;50.906;6.972;2022-09-01T13:15:39;2.80;;;1.92;;
54193;SDS011;40102;50.906;6.972;2022-09-01T13:18:26;2.30;;;1.70;;
54193;SDS011;40102;50.906;6.972;2022-09-01T13:20:52;3.58;;;1.92;;
54193;SDS011;40102;50.906;6.972;2022-09-01T13:23:19;2.38;;;1.77;;
54193;SDS011;40102;50.906;6.972;2022-09-01T13:25:45;2.92;;;1.70;;
54193;SDS011;40102;50.906;6.972;2022-09-01T13:28:12;4.30;;;1.50;;
54193;SDS011;40102;50.906;6.972;2022-09-01T13:30:40;2.10;;;1.60;;
54193;SDS011;40102;50.906;6.972;2022-09-01T13:33:11;2.60;;;1.67;;
54193;SDS011;40102;50.906;6.972;2022-09-01T13:35:36;2.28;;;1.60;;
54193;SDS011;40102;50.906;6.972;2022-09-01T13:38:03;2.75;;;1.70;;
54193;SDS011;40102;50.906;6.972;2022-09-01T13:40:28;1.90;;;1.70;;
54193;SDS011;40102;50.906;6.972;2022-09-01T13:42:53;3.55;;;1.67;;
54193;SDS011;40102;50.906;6.972;2022-09-01T13:45:20;2.75;;;1.60;;
54193;SDS011;40102;50.906;6.972;2022-09-01T13:47:49;1.75;;;1.45;;
54193;SDS011;40102;50.906;6.972;2022-09-01T13:50:16;1.67;;;1.58;;
54193;SDS011;40102;50.906;6.972;2022-09-01T13:52:48;2.97;;;1.48;;
54193;SDS011;40102;50.906;6.972;2022-09-01T13:55:19;1.92;;;1.70;;
54193;SDS011;40102;50.906;6.972;2022-09-01T13:57:50;2.10;;;1.35;;
54193;SDS011;40102;50.906;6.972;2022-09-01T14:00:17;3.33;;;1.67;;
54193;SDS011;40102;50.906;6.972;2022-09-01T14:02:45;2.38;;;1.80;;
54193;SDS011;40102;50.906;6.972;2022-09-01T14:05:17;2.88;;;1.88;;
54193;SDS011;40102;50.906;6.972;2022-09-01T14:07:45;1.90;;;1.70;;
54193;SDS011;40102;50.906;6.972;2022-09-01T14:10:11;2.05;;;1.63;;
54193;SDS011;40102;50.906;6.972;2022-09-01T14:12:38;1.67;;;1.58;;
54193;SDS011;40102;50.906;6.972;2022-09-01T14:15:06;3.75;;;1.70;;
54193;SDS011;40102;50.906;6.972;2022-09-01T14:17:34;2.63;;;1.70;;
54193;SDS011;40102;50.906;6.972;2022-09-01T14:20:01;3.08;;;1.58;;
54193;SDS011;40102;50.906;6.972;2022-09-01T14:22:27;5.65;;;1.80;;
54193;SDS011;40102;50.906;6.972;2022-09-01T14:24:52;1.77;;;1.67;;
54193;SDS011;40102;50.906;6.972;2022-09-01T14:27:18;3.55;;;1.70;;
54193;SDS011;40102;50.906;6.972;2022-09-01T14:29:50;2.08;;;1.65;;
54193;SDS011;40102;50.906;6.972;2022-09-01T14:32:17;1.73;;;1.63;;
54193;SDS011;40102;50.906;6.972;2022-09-01T14:37:12;10.88;;;2.05;;
54193;SDS011;40102;50.906;6.972;2022-09-01T14:39:38;2.67;;;1.55;;
54193;SDS011;40102;50.906;6.972;2022-09-01T14:42:04;2.85;;;1.55;;
54193;SDS011;40102;50.906;6.972;2022-09-01T14:44:36;2.33;;;1.90;;
54193;SDS011;40102;50.906;6.972;2022-09-01T14:47:02;2.30;;;1.73;;
54193;SDS011;40102;50.906;6.972;2022-09-01T14:49:30;1.90;;;1.38;;
54193;SDS011;40102;50.906;6.972;2022-09-01T14:52:00;3.13;;;1.35;;
54193;SDS011;40102;50.906;6.972;2022-09-01T14:54:28;1.98;;;1.52;;
54193;SDS011;40102;50.906;6.972;2022-09-01T14:56:54;2.05;;;1.58;;
54193;SDS011;40102;50.906;6.972;2022-09-01T14:59:20;3.30;;;1.70;;
54193;SDS011;40102;50.906;6.972;2022-09-01T15:01:45;1.95;;;1.67;;
54193;SDS011;40102;50.906;6.972;2022-09-01T15:04:10;1.65;;;1.50;;
54193;SDS011;40102;50.906;6.972;2022-09-01T15:06:36;1.73;;;1.60;;
54193;SDS011;40102;50.906;6.972;2022-09-01T15:09:04;2.45;;;1.83;;
54193;SDS011;40102;50.906;6.972;2022-09-01T15:11:30;1.75;;;1.65;;
54193;SDS011;40102;50.906;6.972;2022-09-01T15:13:55;8.07;;;1.90;;
54193;SDS011;40102;50.906;6.972;2022-09-01T15:16:22;4.10;;;1.50;;
54193;SDS011;40102;50.906;6.972;2022-09-01T15:18:49;1.98;;;1.52;;
54193;SDS011;40102;50.906;6.972;2022-09-01T15:21:25;2.47;;;1.55;;
54193;SDS011;40102;50.906;6.972;2022-09-01T15:23:55;2.85;;;1.70;;
54193;SDS011;40102;50.906;6.972;2022-09-01T15:26:20;3.83;;;1.80;;
54193;SDS011;40102;50.906;6.972;2022-09-01T15:28:46;3.58;;;1.88;;
54193;SDS011;40102;50.906;6.972;2022-09-01T15:31:13;2.55;;;1.70;;
54193;SDS011;40102;50.906;6.972;2022-09-01T15:33:41;4.80;;;1.67;;
54193;SDS011;40102;50.906;6.972;2022-09-01T15:36:08;1.50;;;1.40;;
54193;SDS011;40102;50.906;6.972;2022-09-01T15:38:40;3.00;;;1.67;;
54193;SDS011;40102;50.906;6.972;2022-09-01T15:41:06;1.60;;;1.50;;
54193;SDS011;40102;50.906;6.972;2022-09-01T15:43:31;3.03;;;1.60;;
54193;SDS011;40102;50.906;6.972;2022-09-01T15:45:57;2.15;;;1.40;;
54193;SDS011;40102;50.906;6.972;2022-09-01T15:48:25;2.90;;;1.63;;
54193;SDS011;40102;50.906;6.972;2022-09-01T15:50:52;1.67;;;1.58;;
54193;SDS011;40102;50.906;6.972;2022-09-01T15:53:18;1.50;;;1.40;;
54193;SDS011;40102;50.906;6.972;2022-09-01T15:55:45;1.50;;;1.40;;
54193;SDS011;40102;50.906;6.972;2022-09-01T15:58:13;1.65;;;1.55;;
54193;SDS011;40102;50.906;6.972;2022-09-01T16:00:41;1.70;;;1.60;;
54193;SDS011;40102;50.906;6.972;2022-09-01T16:03:07;5.28;;;1.70;;
54193;SDS011;40102;50.906;6.972;2022-09-01T16:05:34;2.65;;;1.50;;
54193;SDS011;40102;50.906;6.972;2022-09-01T16:08:02;2.00;;;1.40;;
54193;SDS011;40102;50.906;6.972;2022-09-01T16:10:29;1.50;;;1.40;;
54193;SDS011;40102;50.906;6.972;2022-09-01T16:12:54;3.72;;;1.50;;
54193;SDS011;40102;50.906;6.972;2022-09-01T16:15:22;3.78;;;1.50;;
54193;SDS011;40102;50.906;6.972;2022-09-01T16:23:21;1.20;;;1.10;;
54193;SDS011;40102;50.906;6.972;2022-09-01T16:25:49;1.40;;;1.30;;
54193;SDS011;40102;50.906;6.972;2022-09-01T16:30:56;2.40;;;1.30;;